Time;durP1;ratioP1;P1;durP2;ratioP2;P2;SDS_P1;SDS_P2;PMS_P1;PMS_P2;Temp;Humidity;BMP_temperature;BMP_pressure;BME280_temperature;BME280_humidity;BME280_pressure;Samples;Min_cycle;Max_cycle;Signal;HPM_P1;HPM_P2
2024/01/20 00:01:56;;;;;;;9.15;4.30;;;-0.50;1.00;;;;;;5075867;28;20431;-52
2024/01/20 00:04:24;;;;;;;10.95;4.38;;;-0.50;1.00;;;;;;5083992;28;20422;-54
2024/01/20 00:06:52;;;;;;;8.73;4.20;;;-0.50;1.00;;;;;;5074145;28;20422;-55
2024/01/20 00:09:19;;;;;;;7.57;3.70;;;-0.50;1.00;;;;;;5091110;28;20452;-51
2024/01/20 00:11:46;;;;;;;6.85;2.90;;;-0.60;1.00;;;;;;5093036;28;20434;-53
2024/01/20 00:14:13;;;;;;;7.05;3.53;;;-0.70;1.00;;;;;;5092871;28;20895;-51
2024/01/20 00:16:40;;;;;;;7.53;4.10;;;-0.80;1.00;;;;;;5094518;28;20856;-50
2024/01/20 00:19:07;;;;;;;8.23;3.47;;;-0.70;1.00;;;;;;5094011;28;20434;-55
2024/01/20 00:21:34;;;;;;;8.95;4.68;;;-0.60;1.00;;;;;;5093770;28;20490;-52
2024/01/20 00:24:03;;;;;;;6.88;3.05;;;-0.60;1.00;;;;;;5091736;28;20425;-50
2024/01/20 00:26:30;;;;;;;7.50;3.42;;;-0.70;1.00;;;;;;5093529;28;20425;-53
2024/01/20 00:28:57;;;;;;;6.45;2.67;;;-0.90;1.00;;;;;;5091580;28;20728;-50
2024/01/20 00:31:24;;;;;;;7.38;3.17;;;-1.00;1.00;;;;;;5093366;28;20434;-54
2024/01/20 00:33:51;;;;;;;7.35;3.13;;;-1.00;1.00;;;;;;5094016;28;20432;-52
2024/01/20 00:36:18;;;;;;;8.57;3.73;;;-1.10;1.00;;;;;;5090127;28;20439;-51
2024/01/20 00:38:45;;;;;;;8.18;3.67;;;-1.00;1.00;;;;;;5088630;28;20436;-51
2024/01/20 00:41:13;;;;;;;9.68;3.80;;;-1.00;1.00;;;;;;5097314;28;20432;-56
2024/01/20 00:43:40;;;;;;;7.78;3.60;;;-1.10;1.00;;;;;;5097802;28;20451;-53
2024/01/20 00:46:07;;;;;;;7.60;3.28;;;-1.10;1.00;;;;;;5084427;28;20439;-53
2024/01/20 00:48:34;;;;;;;9.40;3.83;;;-1.10;1.00;;;;;;5079744;28;20435;-54
2024/01/20 00:51:01;;;;;;;9.98;4.50;;;-1.10;1.00;;;;;;5077987;28;20439;-50
2024/01/20 00:53:28;;;;;;;7.68;3.60;;;-1.10;1.00;;;;;;5091411;28;20441;-56
2024/01/20 00:55:55;;;;;;;7.60;3.38;;;-1.20;1.00;;;;;;5097850;28;20804;-52
2024/01/20 00:58:24;;;;;;;10.63;4.35;;;-1.00;1.00;;;;;;5090070;28;20444;-53
2024/01/20 01:00:51;;;;;;;7.68;4.30;;;-0.70;1.00;;;;;;5075553;28;20427;-51
2024/01/20 01:03:18;;;;;;;9.48;4.82;;;-0.70;1.00;;;;;;5088446;28;20429;-52
2024/01/20 01:05:44;;;;;;;9.70;4.80;;;-0.70;1.00;;;;;;5095905;28;20422;-55
2024/01/20 01:08:12;;;;;;;9.63;3.17;;;-0.70;1.00;;;;;;5096988;28;20467;-55
2024/01/20 01:10:39;;;;;;;8.80;3.00;;;-0.70;1.00;;;;;;5097678;28;20421;-55
2024/01/20 01:13:07;;;;;;;8.63;3.75;;;-0.60;1.00;;;;;;5097681;28;20422;-55
2024/01/20 01:15:36;;;;;;;10.35;4.20;;;-0.40;1.00;;;;;;5086320;28;20446;-52
2024/01/20 01:18:03;;;;;;;8.43;3.28;;;-0.50;1.00;;;;;;5087250;28;20813;-52
2024/01/20 01:20:30;;;;;;;9.32;3.50;;;-0.60;1.00;;;;;;5089713;28;20429;-53
2024/01/20 01:22:57;;;;;;;10.67;3.90;;;-0.80;1.00;;;;;;5077004;28;20705;-52
2024/01/20 01:25:24;;;;;;;9.98;4.50;;;-0.90;1.00;;;;;;5086607;28;20434;-56
2024/01/20 01:27:51;;;;;;;8.15;4.47;;;-1.10;1.00;;;;;;5097990;28;20426;-54
2024/01/20 01:30:19;;;;;;;9.77;4.70;;;-1.10;1.00;;;;;;5096910;28;20437;-52
2024/01/20 01:32:47;;;;;;;12.82;5.28;;;-1.20;1.00;;;;;;5096877;28;20803;-54
2024/01/20 01:35:14;;;;;;;10.40;4.50;;;-1.20;1.00;;;;;;5082419;28;20449;-54
2024/01/20 01:37:41;;;;;;;11.13;4.53;;;-1.20;1.00;;;;;;5086482;28;20429;-53
2024/01/20 01:40:09;;;;;;;13.48;4.18;;;-1.30;1.00;;;;;;5097390;28;20426;-50
2024/01/20 01:42:36;;;;;;;10.02;5.43;;;-1.20;1.00;;;;;;5096925;28;20430;-53
2024/01/20 01:45:03;;;;;;;8.70;4.80;;;-1.30;1.00;;;;;;5087204;28;20427;-53
2024/01/20 01:47:31;;;;;;;13.20;5.88;;;-1.40;1.00;;;;;;5075630;28;20438;-52
2024/01/20 01:49:59;;;;;;;10.05;4.85;;;-1.40;1.00;;;;;;5075870;28;20481;-53
2024/01/20 01:52:27;;;;;;;12.27;5.63;;;-1.50;1.00;;;;;;5090675;28;20438;-55
2024/01/20 01:54:55;;;;;;;15.00;5.00;;;-1.50;1.00;;;;;;5092127;28;20531;-56
2024/01/20 01:57:23;;;;;;;9.70;3.67;;;-1.50;1.00;;;;;;5077487;28;20439;-53
2024/01/20 01:59:50;;;;;;;13.47;5.77;;;-1.60;1.00;;;;;;5077579;28;20431;-54
2024/01/20 02:02:17;;;;;;;11.82;5.45;;;-1.60;1.50;;;;;;5076750;28;20449;-52
2024/01/20 02:04:44;;;;;;;12.17;5.40;;;-1.60;7.90;;;;;;5078925;28;20427;-50
2024/01/20 02:07:16;;;;;;;10.40;4.95;;;-1.50;3.80;;;;;;5094647;28;21046;-56
2024/01/20 02:09:46;;;;;;;11.75;4.72;;;-1.50;1.10;;;;;;5085068;28;20848;-50
2024/01/20 02:12:15;;;;;;;12.30;4.93;;;-1.50;1.00;;;;;;5076743;28;20744;-56
2024/01/20 02:14:43;;;;;;;13.65;4.32;;;-1.70;1.00;;;;;;5088000;28;20437;-55
2024/01/20 02:17:11;;;;;;;10.88;4.20;;;-1.70;1.70;;;;;;5093381;28;20804;-55
2024/01/20 02:19:38;;;;;;;11.40;4.28;;;-1.90;1.00;;;;;;5090208;28;20417;-54
2024/01/20 02:22:11;;;;;;;10.60;4.72;;;-1.90;16.90;;;;;;5096309;28;20518;-52
2024/01/20 02:24:40;;;;;;;12.95;5.65;;;-1.80;25.10;;;;;;5095331;28;20491;-57
2024/01/20 02:27:08;;;;;;;9.18;4.50;;;-1.80;18.60;;;;;;5089381;28;20502;-54
2024/01/20 02:29:38;;;;;;;10.57;4.80;;;-1.80;12.90;;;;;;5095193;28;20436;-53
2024/01/20 02:32:06;;;;;;;14.38;5.18;;;-1.90;18.40;;;;;;5096070;28;20430;-55
2024/01/20 02:34:33;;;;;;;9.60;4.35;;;-1.90;27.20;;;;;;5096085;28;20818;-55
2024/01/20 02:37:01;;;;;;;10.35;4.60;;;-1.90;23.20;;;;;;5086482;28;20409;-56
2024/01/20 02:39:29;;;;;;;13.98;5.28;;;-1.80;41.90;;;;;;5084861;28;20422;-53
2024/01/20 02:41:56;;;;;;;10.40;4.60;;;-1.80;20.20;;;;;;5089236;28;20470;-54
2024/01/20 02:44:23;;;;;;;13.70;5.70;;;-1.70;24.20;;;;;;5084359;28;20508;-54
2024/01/20 02:46:52;;;;;;;11.00;5.30;;;-1.60;18.60;;;;;;5085316;28;20429;-54
2024/01/20 02:49:19;;;;;;;11.93;5.50;;;-1.70;1.00;;;;;;5086080;28;20435;-52
2024/01/20 02:51:46;;;;;;;13.63;5.73;;;-1.70;1.00;;;;;;5084412;28;20481;-55
2024/01/20 02:54:13;;;;;;;10.05;4.85;;;-1.60;4.30;;;;;;5082071;28;20430;-56
2024/01/20 02:56:42;;;;;;;12.10;5.50;;;-1.70;1.00;;;;;;5088605;28;21050;-54
2024/01/20 02:59:09;;;;;;;11.48;4.80;;;-1.70;1.00;;;;;;5086759;28;20477;-54
2024/01/20 03:01:36;;;;;;;9.95;4.00;;;-1.80;1.00;;;;;;5084065;28;20744;-54
2024/01/20 03:04:03;;;;;;;8.85;3.97;;;-1.70;6.50;;;;;;5087162;28;20433;-51
2024/01/20 03:06:31;;;;;;;9.32;4.38;;;-1.70;5.90;;;;;;5083233;28;20430;-52
2024/01/20 03:08:58;;;;;;;10.93;4.50;;;-1.60;6.10;;;;;;5084953;28;20490;-55
2024/01/20 03:11:25;;;;;;;11.40;4.72;;;-1.50;1.00;;;;;;5083561;28;20439;-53
2024/01/20 03:13:53;;;;;;;11.98;5.05;;;-1.60;1.00;;;;;;5083806;28;20428;-57
2024/01/20 03:16:20;;;;;;;12.88;5.63;;;-1.50;1.00;;;;;;5082142;28;20435;-56
2024/01/20 03:18:48;;;;;;;12.40;5.50;;;-1.50;1.00;;;;;;5086305;28;20434;-53
2024/01/20 03:21:15;;;;;;;10.47;5.50;;;-1.50;1.00;;;;;;5082339;28;20435;-55
2024/01/20 03:23:43;;;;;;;11.38;5.43;;;-1.60;1.00;;;;;;5085878;28;20430;-51
2024/01/20 03:26:10;;;;;;;13.07;6.13;;;-1.60;1.00;;;;;;5084904;28;20406;-53
2024/01/20 03:28:39;;;;;;;9.45;5.55;;;-1.60;1.00;;;;;;5082968;28;20987;-55
2024/01/20 03:31:07;;;;;;;11.60;6.00;;;-1.50;1.00;;;;;;5081977;28;20433;-55
2024/01/20 03:33:35;;;;;;;10.95;4.88;;;-1.40;1.00;;;;;;5082440;28;20823;-55
2024/01/20 03:36:02;;;;;;;11.48;5.40;;;-1.40;1.00;;;;;;5084626;28;20868;-55
2024/01/20 03:38:29;;;;;;;9.85;5.60;;;-1.40;1.00;;;;;;5085113;28;20528;-54
2024/01/20 03:40:57;;;;;;;11.83;5.50;;;-1.40;1.00;;;;;;5085103;28;20434;-55
2024/01/20 03:43:24;;;;;;;11.00;4.40;;;-1.30;1.00;;;;;;5082515;28;20451;-53
2024/01/20 03:45:53;;;;;;;12.85;5.93;;;-1.40;1.00;;;;;;5082569;28;20751;-54
2024/01/20 03:48:21;;;;;;;11.25;4.43;;;-1.50;1.00;;;;;;5085622;28;20711;-55
2024/01/20 03:50:48;;;;;;;12.30;5.60;;;-1.50;1.00;;;;;;5083970;28;20801;-54
2024/01/20 03:53:15;;;;;;;9.20;4.78;;;-1.50;1.00;;;;;;5084647;28;20824;-53
2024/01/20 03:55:42;;;;;;;13.43;4.50;;;-1.40;1.00;;;;;;5083036;28;20418;-55
2024/01/20 03:58:11;;;;;;;12.02;5.15;;;-1.40;1.00;;;;;;5086177;28;20551;-53
2024/01/20 04:00:38;;;;;;;11.63;5.85;;;-1.50;1.00;;;;;;5084996;28;20429;-54
2024/01/20 04:03:05;;;;;;;9.83;5.00;;;-1.60;1.00;;;;;;5085164;28;20919;-54
2024/01/20 04:05:33;;;;;;;10.82;5.38;;;-1.60;1.00;;;;;;5084171;28;20465;-50
2024/01/20 04:08:01;;;;;;;9.63;5.47;;;-1.60;1.00;;;;;;5086098;28;20494;-53
2024/01/20 04:10:28;;;;;;;9.48;4.78;;;-1.70;1.00;;;;;;5083468;28;20827;-52
2024/01/20 04:12:55;;;;;;;10.10;5.03;;;-1.70;1.00;;;;;;5085223;28;20439;-54
2024/01/20 04:15:22;;;;;;;10.93;5.13;;;-1.50;14.10;;;;;;5088278;28;20445;-54
2024/01/20 04:17:49;;;;;;;9.20;4.28;;;-1.50;1.00;;;;;;5086701;28;20550;-52
2024/01/20 04:20:16;;;;;;;9.05;4.57;;;-1.50;1.00;;;;;;5088594;28;20421;-52
2024/01/20 04:22:44;;;;;;;10.80;4.50;;;-1.70;1.00;;;;;;5090621;28;20888;-53
2024/01/20 04:25:11;;;;;;;9.73;5.05;;;-1.80;1.00;;;;;;5087630;28;20427;-53
2024/01/20 04:27:40;;;;;;;10.52;4.90;;;-1.80;1.00;;;;;;5087810;28;20437;-50
2024/01/20 04:30:08;;;;;;;9.45;4.63;;;-1.50;15.90;;;;;;5092814;28;20437;-51
2024/01/20 04:32:36;;;;;;;8.67;4.10;;;-1.50;1.00;;;;;;5083553;28;20519;-54
2024/01/20 04:35:03;;;;;;;7.85;3.28;;;-1.50;1.00;;;;;;5088524;28;20445;-51
2024/01/20 04:37:30;;;;;;;8.25;3.78;;;-1.60;1.00;;;;;;5089969;28;20430;-53
2024/01/20 04:40:00;;;;;;;11.70;4.85;;;-1.70;1.00;;;;;;5087757;28;20431;-53
2024/01/20 04:42:27;;;;;;;9.50;4.40;;;-1.70;1.00;;;;;;5087923;28;20688;-54
2024/01/20 04:44:54;;;;;;;13.35;4.90;;;-1.80;1.00;;;;;;5089365;28;20446;-53
2024/01/20 04:47:22;;;;;;;12.43;5.05;;;-1.80;1.00;;;;;;5091232;28;20437;-52
2024/01/20 04:49:51;;;;;;;8.93;3.80;;;-2.00;1.00;;;;;;5086585;28;20441;-54
2024/01/20 04:52:19;;;;;;;10.10;4.78;;;-1.90;1.00;;;;;;5090476;28;20447;-53
2024/01/20 04:54:46;;;;;;;9.02;3.33;;;-2.00;1.00;;;;;;5091437;28;20508;-54
2024/01/20 04:57:14;;;;;;;9.23;4.37;;;-2.00;1.00;;;;;;5089085;28;20445;-51
2024/01/20 04:59:41;;;;;;;12.00;4.70;;;-1.90;1.00;;;;;;5087123;28;20443;-51
2024/01/20 05:02:09;;;;;;;9.90;4.77;;;-1.90;1.00;;;;;;5087350;28;20805;-52
2024/01/20 05:04:36;;;;;;;11.05;4.07;;;-1.80;1.00;;;;;;5089888;28;20433;-50
2024/01/20 05:07:03;;;;;;;12.52;4.80;;;-1.60;1.00;;;;;;5088465;28;20845;-56
2024/01/20 05:09:30;;;;;;;8.30;3.60;;;-1.50;1.00;;;;;;5083620;28;20425;-54
2024/01/20 05:11:57;;;;;;;10.23;4.72;;;-1.60;1.00;;;;;;5087696;28;20435;-54
2024/01/20 05:14:26;;;;;;;9.32;4.03;;;-1.80;1.00;;;;;;5089988;28;20429;-55
2024/01/20 05:16:53;;;;;;;10.52;4.68;;;-2.00;1.00;;;;;;5089522;28;20445;-54
2024/01/20 05:19:20;;;;;;;8.88;4.32;;;-1.90;1.00;;;;;;5089814;28;20427;-53
2024/01/20 05:21:47;;;;;;;12.20;4.17;;;-1.90;1.00;;;;;;5087000;28;20812;-52
2024/01/20 05:24:15;;;;;;;7.30;4.40;;;-2.00;1.00;;;;;;5085317;28;20432;-56
2024/01/20 05:26:42;;;;;;;14.75;5.53;;;-2.00;1.00;;;;;;5086741;28;20433;-53
2024/01/20 05:29:09;;;;;;;12.00;5.40;;;-2.00;1.00;;;;;;5087538;28;20516;-50
2024/01/20 05:31:38;;;;;;;9.63;5.20;;;-1.80;9.50;;;;;;5083938;28;20571;-53
2024/01/20 05:34:05;;;;;;;11.65;5.47;;;-2.10;1.00;;;;;;5087473;28;20449;-54
2024/01/20 05:36:32;;;;;;;10.40;5.57;;;-2.10;1.00;;;;;;5086877;28;20428;-54
2024/01/20 05:38:59;;;;;;;11.27;5.00;;;-2.00;9.60;;;;;;5085477;28;20889;-56
2024/01/20 05:41:26;;;;;;;15.07;7.17;;;-1.90;12.60;;;;;;5087677;28;20440;-54
2024/01/20 05:43:53;;;;;;;9.88;4.95;;;-1.90;5.30;;;;;;5086129;28;20804;-55
2024/01/20 05:46:21;;;;;;;12.13;5.30;;;-1.90;1.00;;;;;;5086472;28;20457;-52
2024/01/20 05:49:09;;;;;;;12.05;5.07;;;-2.00;1.00;;;;;;5084740;28;20431;-53
2024/01/20 05:51:36;;;;;;;13.30;6.47;;;-2.00;7.60;;;;;;5086243;28;20526;-54
2024/01/20 05:54:04;;;;;;;13.27;6.03;;;-1.90;1.00;;;;;;5084599;28;20448;-53
2024/01/20 05:56:31;;;;;;;10.77;5.47;;;-2.00;1.00;;;;;;5087583;28;20425;-53
2024/01/20 05:58:58;;;;;;;11.45;6.00;;;-2.00;1.00;;;;;;5086263;28;20419;-53
2024/01/20 06:01:25;;;;;;;8.13;3.95;;;-2.00;1.00;;;;;;5084546;28;20485;-55
2024/01/20 06:03:55;;;;;;;12.50;6.20;;;-2.10;1.00;;;;;;5086316;28;20814;-54
2024/01/20 06:06:23;;;;;;;11.30;4.80;;;-2.10;1.00;;;;;;5084704;28;20717;-55
2024/01/20 06:08:52;;;;;;;14.65;6.18;;;-2.00;16.50;;;;;;5084784;28;20450;-55
2024/01/20 06:11:19;;;;;;;12.73;5.32;;;-2.00;1.00;;;;;;5084103;28;20455;-53
2024/01/20 06:13:46;;;;;;;9.70;4.93;;;-1.90;10.20;;;;;;5083913;28;20857;-53
2024/01/20 06:16:14;;;;;;;12.70;5.85;;;-1.90;1.00;;;;;;5085936;28;20424;-54
2024/01/20 06:18:42;;;;;;;12.18;6.35;;;-2.10;1.00;;;;;;5084387;28;20893;-53
2024/01/20 06:21:11;;;;;;;11.75;4.97;;;-2.20;1.00;;;;;;5083195;28;20427;-53
2024/01/20 06:23:38;;;;;;;13.40;6.50;;;-2.20;19.80;;;;;;5083899;28;20453;-55
2024/01/20 06:26:05;;;;;;;11.70;5.47;;;-2.30;1.00;;;;;;5085397;28;20831;-53
2024/01/20 06:28:32;;;;;;;12.70;6.38;;;-2.30;12.70;;;;;;5084778;28;20420;-52
2024/01/20 06:31:00;;;;;;;11.85;5.32;;;-2.40;11.40;;;;;;5082382;28;20433;-55
2024/01/20 06:33:27;;;;;;;15.73;6.70;;;-2.30;28.70;;;;;;5085069;28;20444;-53
2024/01/20 06:35:54;;;;;;;14.32;6.30;;;-2.40;16.40;;;;;;5086149;28;20488;-53
2024/01/20 06:38:22;;;;;;;13.02;6.05;;;-2.20;32.50;;;;;;5084687;28;20442;-52
2024/01/20 06:40:49;;;;;;;9.50;3.97;;;-1.80;58.50;;;;;;5083777;28;20420;-53
2024/01/20 06:43:16;;;;;;;13.52;5.65;;;-1.80;1.00;;;;;;5084707;28;20850;-52
2024/01/20 06:45:45;;;;;;;10.45;4.93;;;-1.90;1.00;;;;;;5085720;28;20443;-53
2024/01/20 06:48:13;;;;;;;10.75;4.85;;;-2.10;1.00;;;;;;5084458;28;20434;-54
2024/01/20 06:50:43;;;;;;;12.15;4.95;;;-2.20;1.40;;;;;;5086649;28;20528;-54
2024/01/20 06:53:10;;;;;;;12.35;5.03;;;-2.30;1.00;;;;;;5085347;28;20437;-50
2024/01/20 06:55:39;;;;;;;11.75;5.95;;;-2.40;1.00;;;;;;5082800;28;20752;-52
2024/01/20 06:58:06;;;;;;;12.20;5.93;;;-2.40;8.70;;;;;;5084686;28;20489;-52
2024/01/20 07:00:33;;;;;;;13.13;6.03;;;-2.40;6.90;;;;;;5085587;28;20833;-57
2024/01/20 07:03:00;;;;;;;14.93;6.32;;;-2.50;17.30;;;;;;5090686;28;20490;-58
2024/01/20 07:05:27;;;;;;;13.65;6.03;;;-2.30;44.10;;;;;;5085547;28;20523;-56
2024/01/20 07:07:54;;;;;;;14.40;6.82;;;-2.30;22.10;;;;;;5088005;28;20437;-57
2024/01/20 07:10:21;;;;;;;13.23;6.28;;;-2.30;24.40;;;;;;5086660;28;20758;-58
2024/01/20 07:12:49;;;;;;;12.80;5.80;;;-1.80;74.70;;;;;;5084649;28;20512;-58
2024/01/20 07:15:16;;;;;;;11.00;5.10;;;-2.10;1.00;;;;;;5085011;28;20518;-59
2024/01/20 07:17:43;;;;;;;12.20;6.03;;;-2.30;1.00;;;;;;5086411;28;20790;-59
2024/01/20 07:20:11;;;;;;;14.68;6.28;;;-2.40;1.00;;;;;;5086362;28;20432;-59
2024/01/20 07:22:41;;;;;;;14.13;6.45;;;-2.60;3.60;;;;;;5085757;28;20426;-59
2024/01/20 07:25:09;;;;;;;13.82;6.07;;;-2.60;27.20;;;;;;5082161;28;20487;-59
2024/01/20 07:27:36;;;;;;;10.90;6.45;;;-2.50;25.60;;;;;;5084914;28;20453;-59
2024/01/20 07:30:06;;;;;;;11.80;5.67;;;-2.50;26.70;;;;;;5085010;28;21020;-59
2024/01/20 07:32:33;;;;;;;10.75;4.85;;;-2.50;28.00;;;;;;5081633;28;20522;-59
2024/01/20 07:35:00;;;;;;;14.30;5.72;;;-2.50;13.70;;;;;;5080764;28;20438;-58
2024/01/20 07:37:28;;;;;;;15.65;6.80;;;-2.60;14.30;;;;;;5084345;28;20913;-59
2024/01/20 07:39:55;;;;;;;15.20;6.60;;;-2.60;30.00;;;;;;5082230;28;20893;-59
2024/01/20 07:42:22;;;;;;;15.32;5.93;;;-2.60;37.10;;;;;;5080689;28;20819;-58
2024/01/20 07:44:49;;;;;;;16.92;7.18;;;-2.10;80.90;;;;;;5084959;28;20762;-59
2024/01/20 07:47:17;;;;;;;14.10;6.80;;;-2.20;14.60;;;;;;5081070;28;20443;-56
2024/01/20 07:49:44;;;;;;;14.10;7.03;;;-2.20;7.50;;;;;;5084005;28;20796;-60
2024/01/20 07:52:14;;;;;;;14.40;6.78;;;-2.40;1.00;;;;;;5088170;28;20495;-60
2024/01/20 07:54:41;;;;;;;12.13;5.95;;;-2.30;6.40;;;;;;5089282;28;20453;-57
2024/01/20 07:57:09;;;;;;;13.50;6.63;;;-2.20;11.20;;;;;;5084698;28;20446;-58
2024/01/20 07:59:36;;;;;;;15.82;7.55;;;-2.00;21.90;;;;;;5084209;28;20462;-59
2024/01/20 08:02:04;;;;;;;12.32;6.43;;;-2.10;1.00;;;;;;5085031;28;20438;-59
2024/01/20 08:04:32;;;;;;;14.88;6.75;;;-2.20;1.00;;;;;;5087330;28;20477;-58
2024/01/20 08:06:59;;;;;;;14.65;5.70;;;-2.30;2.90;;;;;;5088032;28;20849;-58
2024/01/20 08:09:26;;;;;;;12.60;6.93;;;-2.20;1.00;;;;;;5087505;28;20847;-57
2024/01/20 08:11:53;;;;;;;11.35;6.57;;;-2.30;1.00;;;;;;5081575;28;20527;-58
2024/01/20 08:14:20;;;;;;;14.87;7.10;;;-2.30;1.10;;;;;;5080686;28;20454;-58
2024/01/20 08:16:47;;;;;;;14.05;6.28;;;-2.30;1.00;;;;;;5085162;28;22090;-58
2024/01/20 08:19:14;;;;;;;15.07;7.25;;;-2.40;1.00;;;;;;5085948;28;20765;-58
2024/01/20 08:21:43;;;;;;;18.70;8.27;;;-2.40;1.00;;;;;;5083239;28;20434;-59
2024/01/20 08:24:10;;;;;;;14.07;6.97;;;-2.40;1.00;;;;;;5082108;28;20433;-59
2024/01/20 08:26:37;;;;;;;16.08;7.30;;;-2.40;1.00;;;;;;5082432;28;20447;-59
2024/01/20 08:29:04;;;;;;;16.67;7.40;;;-2.40;1.00;;;;;;5084540;28;20455;-59
2024/01/20 08:31:31;;;;;;;14.77;7.05;;;-2.40;1.00;;;;;;5078406;28;20419;-59
2024/01/20 08:33:58;;;;;;;14.37;6.97;;;-2.30;1.00;;;;;;5081144;28;20454;-59
2024/01/20 08:36:25;;;;;;;12.20;6.90;;;-2.30;6.80;;;;;;5081108;28;20739;-59
2024/01/20 08:38:54;;;;;;;14.65;6.97;;;-2.20;1.00;;;;;;5080593;28;20437;-59
2024/01/20 08:41:21;;;;;;;13.23;5.15;;;-2.20;1.00;;;;;;5080990;28;20452;-59
2024/01/20 08:43:49;;;;;;;14.68;6.43;;;-2.10;1.00;;;;;;5076329;28;20906;-59
2024/01/20 08:46:16;;;;;;;11.55;5.43;;;-2.10;1.00;;;;;;5082973;28;20429;-59
2024/01/20 08:48:46;;;;;;;15.70;6.78;;;-2.20;1.00;;;;;;5083940;28;20456;-59
2024/01/20 08:51:13;;;;;;;17.95;7.40;;;-2.30;1.00;;;;;;5083442;28;20433;-59
2024/01/20 08:53:40;;;;;;;15.43;7.03;;;-2.20;1.00;;;;;;5087446;28;20422;-59
2024/01/20 08:56:09;;;;;;;16.63;6.20;;;-2.20;1.00;;;;;;5085226;28;20842;-59
2024/01/20 08:58:36;;;;;;;15.35;5.72;;;-2.20;1.00;;;;;;5088782;28;20454;-59
2024/01/20 09:01:03;;;;;;;17.25;7.35;;;-2.20;1.00;;;;;;5092941;28;20440;-59
2024/01/20 09:03:30;;;;;;;14.70;6.43;;;-2.20;1.00;;;;;;5090314;28;20959;-59
2024/01/20 09:05:57;;;;;;;13.67;5.93;;;-2.10;1.00;;;;;;5090957;28;20445;-59
2024/01/20 09:08:24;;;;;;;12.15;6.80;;;-2.00;1.00;;;;;;5092085;28;20895;-59
2024/01/20 09:10:52;;;;;;;14.48;6.30;;;-2.00;1.00;;;;;;5086132;28;20495;-59
2024/01/20 09:13:20;;;;;;;13.13;6.30;;;-2.10;1.00;;;;;;5092020;28;20430;-59
2024/01/20 09:15:47;;;;;;;15.60;6.43;;;-2.20;1.00;;;;;;5081930;28;21081;-58
2024/01/20 09:18:16;;;;;;;15.43;6.40;;;-2.30;1.00;;;;;;5086852;28;20469;-58
2024/01/20 09:20:43;;;;;;;13.57;6.60;;;-2.10;10.60;;;;;;5089642;28;20507;-59
2024/01/20 09:23:10;;;;;;;14.87;7.10;;;-2.20;1.00;;;;;;5081656;28;20465;-59
2024/01/20 09:25:37;;;;;;;15.73;7.53;;;-2.10;1.00;;;;;;5086742;28;20434;-60
2024/01/20 09:28:05;;;;;;;15.18;7.53;;;-2.20;1.00;;;;;;5093062;28;20467;-59
2024/01/20 09:30:35;;;;;;;15.70;6.85;;;-2.20;1.00;;;;;;5082579;28;20472;-59
2024/01/20 09:33:04;;;;;;;14.63;7.10;;;-1.90;1.00;;;;;;5091668;28;20438;-58
2024/01/20 09:35:31;;;;;;;16.70;7.43;;;-1.70;1.00;;;;;;5086278;28;20438;-59
2024/01/20 09:37:59;;;;;;;16.55;7.72;;;-1.60;1.00;;;;;;5091346;28;20499;-60
2024/01/20 09:40:26;;;;;;;15.15;7.60;;;-1.60;1.00;;;;;;5083558;28;20437;-59
2024/01/20 09:42:54;;;;;;;15.70;7.00;;;-1.60;1.00;;;;;;5088020;28;20491;-59
2024/01/20 09:45:21;;;;;;;16.27;7.43;;;-1.50;1.00;;;;;;5076528;28;20447;-59
2024/01/20 09:47:49;;;;;;;14.10;6.55;;;-1.40;1.00;;;;;;5082254;28;20453;-59
2024/01/20 09:50:17;;;;;;;13.60;6.47;;;-1.30;1.00;;;;;;5086294;28;20433;-59
2024/01/20 09:52:57;;;;;;;13.05;7.32;;;-1.20;1.00;;;;;;5091803;28;20725;-60
2024/01/20 09:55:26;;;;;;;15.17;7.40;;;-1.10;1.00;;;;;;5084656;28;20517;-61
2024/01/20 09:57:54;;;;;;;11.50;6.45;;;-1.10;1.00;;;;;;5083193;28;21034;-60
2024/01/20 10:00:23;;;;;;;13.93;7.10;;;-1.30;1.00;;;;;;5092411;28;20895;-59
2024/01/20 10:02:51;;;;;;;13.15;6.65;;;-1.50;1.00;;;;;;5088239;28;20438;-59
2024/01/20 10:05:24;;;;;;;11.52;5.10;;;-1.50;1.00;;;;;;5088534;28;20878;-59
2024/01/20 10:07:51;;;;;;;14.93;6.45;;;-1.50;1.00;;;;;;5084928;28;20441;-58
2024/01/20 10:10:21;;;;;;;11.90;5.43;;;-1.60;1.00;;;;;;5087822;28;20470;-60
2024/01/20 10:12:52;;;;;;;13.68;7.18;;;-1.50;1.00;;;;;;5093238;28;20429;-60
2024/01/20 10:15:23;;;;;;;12.80;5.40;;;-1.60;1.00;;;;;;5092259;28;20434;-59
2024/01/20 10:17:51;;;;;;;13.88;7.18;;;-1.50;1.00;;;;;;5081141;28;20477;-59
2024/01/20 10:20:22;;;;;;;12.57;5.70;;;-1.50;1.00;;;;;;5095664;28;20413;-59
2024/01/20 10:22:49;;;;;;;13.27;6.25;;;-1.40;1.00;;;;;;5083378;28;20539;-59
2024/01/20 10:25:19;;;;;;;13.47;6.20;;;-1.40;1.00;;;;;;5089844;28;20736;-59
2024/01/20 10:27:47;;;;;;;12.88;6.30;;;-1.30;1.00;;;;;;5092895;28;20520;-60
2024/01/20 10:30:16;;;;;;;11.43;5.60;;;-1.40;1.00;;;;;;5092601;28;20722;-59
2024/01/20 10:32:44;;;;;;;13.02;7.00;;;-1.40;1.00;;;;;;5078565;28;20439;-59
2024/01/20 10:35:13;;;;;;;11.80;7.20;;;-1.30;1.00;;;;;;5080373;28;20437;-60
2024/01/20 10:37:42;;;;;;;14.45;7.28;;;-1.00;1.00;;;;;;5080397;28;20918;-60
2024/01/20 10:40:12;;;;;;;12.50;6.90;;;-0.90;1.00;;;;;;5087852;28;20761;-59
2024/01/20 10:42:44;;;;;;;11.60;6.22;;;-0.80;1.00;;;;;;5093303;28;20445;-59
2024/01/20 10:45:16;;;;;;;12.60;6.25;;;-0.80;1.00;;;;;;5091649;28;20519;-59
2024/01/20 10:47:53;;;;;;;13.10;6.05;;;-0.70;1.00;;;;;;5078583;28;20564;-59
2024/01/20 10:50:23;;;;;;;13.38;6.05;;;-0.80;1.00;;;;;;5088901;28;20444;-60
2024/01/20 10:52:51;;;;;;;13.27;7.00;;;-0.70;1.00;;;;;;5084258;28;20432;-59
2024/01/20 10:55:19;;;;;;;11.80;6.60;;;-0.70;1.00;;;;;;5093467;28;20436;-59
2024/01/20 10:57:47;;;;;;;8.95;4.68;;;-0.70;99.90;;;;;;5089844;28;20719;-59
2024/01/20 11:00:16;;;;;;;13.53;7.27;;;-0.40;1.00;;;;;;5087487;28;20442;-59
2024/01/20 11:02:44;;;;;;;15.00;6.35;;;-0.10;1.00;;;;;;5089974;28;21017;-59
2024/01/20 11:05:24;;;;;;;12.50;6.25;;;-0.10;99.90;;;;;;5090642;28;20448;-59
2024/01/20 11:07:58;;;;;;;12.05;6.47;;;-0.20;86.80;;;;;;5086457;28;20442;-59
2024/01/20 11:10:25;;;;;;;12.45;5.63;;;-0.10;1.00;;;;;;5080304;28;20871;-59
2024/01/20 11:13:00;;;;;;;11.90;5.80;;;-0.20;1.00;;;;;;5078069;28;21678;-60
2024/01/20 11:15:30;;;;;;;12.60;4.30;;;-0.10;99.90;;;;;;5090413;28;20472;-60
2024/01/20 11:17:56;;;;;;;12.45;6.25;;;0.20;99.90;;;;;;5090742;28;20497;-60
2024/01/20 11:20:25;;;;;;;10.38;5.32;;;0.20;99.90;;;;;;5088043;28;20442;-60
2024/01/20 11:22:53;;;;;;;12.70;4.82;;;0.20;99.90;;;;;;5090663;28;20426;-58
2024/01/20 11:25:23;;;;;;;11.07;5.00;;;0.20;99.90;;;;;;5084266;28;20449;-58
2024/01/20 11:27:51;;;;;;;11.32;5.32;;;0.20;1.00;;;;;;5090463;28;20441;-59
2024/01/20 11:30:29;;;;;;;8.80;4.78;;;0.30;99.90;;;;;;5080103;28;20427;-59
2024/01/20 11:32:56;;;;;;;9.45;4.47;;;0.60;99.90;;;;;;5080882;28;20433;-59
2024/01/20 11:35:25;;;;;;;9.48;4.97;;;0.80;99.90;;;;;;5088765;28;20467;-60
2024/01/20 11:37:54;;;;;;;12.98;6.38;;;1.00;1.00;;;;;;5088342;28;20430;-60
2024/01/20 11:40:22;;;;;;;8.18;5.30;;;1.10;99.90;;;;;;5085948;28;20876;-59
2024/01/20 11:42:49;;;;;;;10.00;5.25;;;0.90;99.90;;;;;;5085669;28;20423;-60
2024/01/20 11:45:16;;;;;;;11.07;5.15;;;1.10;99.90;;;;;;5073987;28;20431;-60
2024/01/20 11:47:44;;;;;;;9.63;5.00;;;1.20;99.90;;;;;;5083748;28;20437;-57
2024/01/20 11:50:12;;;;;;;12.32;5.68;;;1.20;99.90;;;;;;5089099;28;20434;-60
2024/01/20 11:52:42;;;;;;;9.38;4.82;;;1.30;1.00;;;;;;5084320;28;20431;-60
2024/01/20 11:55:09;;;;;;;11.30;4.53;;;1.30;1.00;;;;;;5084017;28;20846;-60
2024/01/20 11:57:36;;;;;;;9.82;5.25;;;1.20;1.00;;;;;;5085731;28;20873;-60
2024/01/20 12:00:04;;;;;;;9.80;4.35;;;1.10;1.00;;;;;;5083729;28;20888;-61
2024/01/20 12:02:31;;;;;;;6.90;4.00;;;1.10;1.00;;;;;;5085006;28;21302;-58
2024/01/20 12:04:59;;;;;;;10.30;4.40;;;1.10;1.00;;;;;;5083631;28;20840;-58
2024/01/20 12:07:26;;;;;;;8.43;5.25;;;1.10;1.00;;;;;;5078266;28;20762;-58
2024/01/20 12:09:54;;;;;;;10.50;5.45;;;1.20;1.00;;;;;;5092286;28;20495;-60
2024/01/20 12:12:22;;;;;;;11.00;5.37;;;1.10;1.00;;;;;;5085307;28;20446;-61
2024/01/20 12:14:50;;;;;;;9.90;4.00;;;1.20;1.00;;;;;;5085377;28;20488;-61
2024/01/20 12:17:22;;;;;;;9.32;4.22;;;1.30;1.00;;;;;;5084499;28;20448;-62
2024/01/20 12:19:49;;;;;;;9.15;3.97;;;1.40;1.00;;;;;;5090932;28;20430;-62
2024/01/20 12:22:16;;;;;;;8.95;3.85;;;1.40;1.00;;;;;;5088044;28;20795;-62
2024/01/20 12:24:46;;;;;;;8.52;3.20;;;1.50;1.00;;;;;;5077922;28;20740;-62
2024/01/20 12:27:15;;;;;;;10.13;4.70;;;1.40;99.90;;;;;;5087889;28;20527;-62
2024/01/20 12:29:43;;;;;;;9.73;4.03;;;1.40;1.00;;;;;;5078321;28;20455;-62
2024/01/20 12:32:10;;;;;;;9.25;4.10;;;1.50;99.90;;;;;;5080113;28;20426;-63
2024/01/20 12:34:37;;;;;;;11.48;5.20;;;1.50;1.00;;;;;;5078231;28;20484;-62
2024/01/20 12:37:04;;;;;;;7.95;5.10;;;1.60;1.00;;;;;;5077594;28;20438;-62
2024/01/20 12:39:31;;;;;;;8.60;4.10;;;1.60;1.00;;;;;;5085111;28;20536;-62
2024/01/20 12:41:58;;;;;;;9.10;4.97;;;1.70;99.90;;;;;;5083110;28;20423;-62
2024/01/20 12:44:26;;;;;;;12.68;5.60;;;1.70;1.00;;;;;;5095746;28;20429;-62
2024/01/20 12:46:53;;;;;;;11.70;5.22;;;1.70;1.00;;;;;;5092967;28;20502;-62
2024/01/20 12:49:20;;;;;;;12.60;5.40;;;1.70;1.00;;;;;;5092051;28;20477;-62
2024/01/20 12:51:48;;;;;;;12.32;5.38;;;1.80;1.00;;;;;;5082858;28;20442;-62